Time;durP1;ratioP1;P1;durP2;ratioP2;P2;SDS_P1;SDS_P2;PMS_P1;PMS_P2;Temp;Humidity;BMP_temperature;BMP_pressure;BME280_temperature;BME280_humidity;BME280_pressure;Samples;Min_cycle;Max_cycle;Signal;HPM_P1;HPM_P2
2021/09/29 00:01:27;;;;;;;5.83;4.30;;;13.50;99.90;;;;;;1967993;71;21144;-77
2021/09/29 00:03:53;;;;;;;7.62;4.33;;;13.40;99.90;;;;;;1950325;72;21119;-77
2021/09/29 00:06:20;;;;;;;4.37;3.62;;;13.40;99.90;;;;;;1960363;71;21074;-78
2021/09/29 00:08:46;;;;;;;5.45;4.20;;;13.40;99.90;;;;;;1955959;71;21023;-78
2021/09/29 00:11:12;;;;;;;5.40;4.00;;;13.40;99.90;;;;;;1962845;72;21188;-77
2021/09/29 00:13:38;;;;;;;4.75;3.85;;;13.50;99.90;;;;;;1965017;71;21062;-77
2021/09/29 00:16:04;;;;;;;8.20;4.55;;;13.40;99.90;;;;;;1982289;71;21145;-77
2021/09/29 00:18:30;;;;;;;6.65;4.00;;;13.40;99.90;;;;;;1971305;71;21035;-77
2021/09/29 00:20:57;;;;;;;7.03;4.28;;;13.40;99.90;;;;;;1960143;72;21035;-77
2021/09/29 00:23:23;;;;;;;5.15;4.12;;;13.40;99.90;;;;;;1982215;71;21069;-78
2021/09/29 00:25:49;;;;;;;9.15;4.45;;;13.40;99.90;;;;;;1961574;72;21058;-78
2021/09/29 00:28:15;;;;;;;6.00;4.22;;;13.30;99.90;;;;;;1963696;71;21070;-76
2021/09/29 00:30:51;;;;;;;4.53;3.50;;;13.30;99.90;;;;;;1976205;72;21049;-75
2021/09/29 00:33:17;;;;;;;5.92;3.58;;;13.40;99.90;;;;;;1968636;72;21074;-76
2021/09/29 00:35:44;;;;;;;8.03;4.08;;;13.40;99.90;;;;;;1964152;72;21128;-76
2021/09/29 00:38:10;;;;;;;6.30;4.20;;;13.30;99.90;;;;;;1953321;72;21478;-75
2021/09/29 00:40:36;;;;;;;7.17;4.12;;;13.30;99.90;;;;;;1960694;72;21472;-76
2021/09/29 00:43:02;;;;;;;5.62;4.28;;;13.40;99.90;;;;;;1960256;71;21056;-76
2021/09/29 00:45:28;;;;;;;7.42;4.75;;;13.50;99.90;;;;;;1939129;72;21142;-75
2021/09/29 00:47:54;;;;;;;7.20;4.22;;;13.40;99.90;;;;;;1962181;72;21058;-75
2021/09/29 00:50:20;;;;;;;5.62;3.47;;;13.40;99.90;;;;;;1956057;72;21138;-75
2021/09/29 00:52:47;;;;;;;5.33;4.25;;;13.50;99.90;;;;;;1979851;70;21054;-75
2021/09/29 00:55:13;;;;;;;7.05;4.62;;;13.50;99.90;;;;;;1971163;70;21040;-75
2021/09/29 00:57:39;;;;;;;5.35;4.42;;;13.40;99.90;;;;;;1959791;72;21146;-76
2021/09/29 01:00:05;;;;;;;5.62;4.75;;;13.50;99.90;;;;;;1958953;71;21062;-75
2021/09/29 01:02:31;;;;;;;5.72;4.28;;;13.40;99.90;;;;;;1974679;72;21188;-75
2021/09/29 01:04:57;;;;;;;5.35;4.60;;;13.30;99.90;;;;;;1971644;70;21042;-75
2021/09/29 01:07:23;;;;;;;6.90;4.37;;;13.30;99.90;;;;;;1957867;71;21112;-75
2021/09/29 01:09:49;;;;;;;5.87;4.87;;;13.30;99.90;;;;;;1983126;71;21132;-75
2021/09/29 01:12:16;;;;;;;7.33;4.67;;;13.40;99.90;;;;;;1963407;72;21053;-75
2021/09/29 01:14:42;;;;;;;5.72;4.37;;;13.40;99.90;;;;;;1970171;70;21039;-75
2021/09/29 01:17:08;;;;;;;6.45;4.80;;;13.40;99.90;;;;;;1959535;71;21119;-75
2021/09/29 01:19:34;;;;;;;8.38;4.75;;;13.40;99.90;;;;;;1953945;72;21143;-75
2021/09/29 01:22:00;;;;;;;8.80;4.78;;;13.40;99.90;;;;;;1979346;71;21060;-75
2021/09/29 01:24:26;;;;;;;9.55;5.05;;;13.30;99.90;;;;;;1972953;71;21039;-75
2021/09/29 01:26:52;;;;;;;5.83;4.42;;;13.30;99.90;;;;;;1954445;72;21093;-75
2021/09/29 01:29:18;;;;;;;6.55;4.50;;;13.20;99.90;;;;;;1967609;72;21070;-74
2021/09/29 01:31:44;;;;;;;10.43;4.53;;;13.30;99.90;;;;;;1969672;71;21282;-74
2021/09/29 01:34:11;;;;;;;6.03;4.70;;;13.30;99.90;;;;;;1964614;71;21182;-75
2021/09/29 01:36:37;;;;;;;6.28;4.22;;;13.30;99.90;;;;;;1962065;72;21152;-75
2021/09/29 01:39:06;;;;;;;6.72;5.30;;;13.30;99.90;;;;;;1963078;72;21112;-75
2021/09/29 01:41:31;;;;;;;6.12;4.83;;;13.20;99.90;;;;;;1960847;70;21206;-75
2021/09/29 01:43:57;;;;;;;6.25;4.62;;;13.20;99.90;;;;;;1961023;71;21039;-74
2021/09/29 01:46:23;;;;;;;5.47;4.42;;;13.10;99.90;;;;;;1975913;71;21139;-75
2021/09/29 01:48:49;;;;;;;6.22;4.80;;;13.10;99.90;;;;;;1967689;71;21136;-75
2021/09/29 01:51:15;;;;;;;7.70;4.83;;;13.10;99.90;;;;;;1986847;72;21164;-75
2021/09/29 01:53:41;;;;;;;8.53;5.85;;;13.00;99.90;;;;;;1962360;71;21136;-75
2021/09/29 01:56:07;;;;;;;8.03;4.80;;;12.90;99.90;;;;;;1954361;72;21230;-75
2021/09/29 01:58:34;;;;;;;9.38;5.00;;;12.80;99.90;;;;;;1951648;71;21073;-75
2021/09/29 02:01:00;;;;;;;7.42;5.15;;;12.90;99.90;;;;;;1956142;71;21078;-75
2021/09/29 02:03:26;;;;;;;7.22;5.12;;;13.00;99.90;;;;;;1958491;72;21547;-75
2021/09/29 02:05:52;;;;;;;8.43;5.00;;;12.90;99.90;;;;;;1958384;72;21057;-75
2021/09/29 02:08:18;;;;;;;9.75;5.90;;;13.00;99.90;;;;;;1953591;71;21054;-75
2021/09/29 02:10:44;;;;;;;11.03;4.95;;;12.90;99.90;;;;;;1975781;71;21066;-75
2021/09/29 02:13:10;;;;;;;9.00;5.10;;;13.00;99.90;;;;;;1960468;70;21067;-75
2021/09/29 02:15:36;;;;;;;8.23;5.22;;;13.00;99.90;;;;;;1988777;71;21083;-75
2021/09/29 02:18:03;;;;;;;8.55;5.47;;;13.00;99.90;;;;;;1966625;71;21062;-75
2021/09/29 02:20:29;;;;;;;12.58;5.37;;;13.00;99.90;;;;;;1970533;71;21198;-74
2021/09/29 02:22:55;;;;;;;7.87;5.55;;;13.10;99.90;;;;;;1960517;72;21070;-75
2021/09/29 02:25:22;;;;;;;10.50;5.33;;;13.20;99.90;;;;;;1967743;71;21027;-75
2021/09/29 02:27:49;;;;;;;5.58;4.45;;;13.20;99.90;;;;;;1953399;72;21127;-75
2021/09/29 02:30:15;;;;;;;7.35;5.53;;;13.20;99.90;;;;;;1957957;71;21070;-75
2021/09/29 02:32:41;;;;;;;6.08;5.45;;;13.10;99.90;;;;;;1966397;71;21049;-74
2021/09/29 02:35:09;;;;;;;7.37;4.80;;;13.10;99.90;;;;;;1951743;72;21467;-75
2021/09/29 02:37:35;;;;;;;10.90;4.83;;;13.10;99.90;;;;;;1951809;71;21078;-75
2021/09/29 02:40:01;;;;;;;12.90;5.10;;;13.20;99.90;;;;;;1949934;72;22590;-75
2021/09/29 02:42:27;;;;;;;6.87;4.47;;;13.20;99.90;;;;;;1956640;72;21253;-74
2021/09/29 02:44:53;;;;;;;12.25;4.65;;;13.20;99.90;;;;;;1959512;72;21144;-75
2021/09/29 02:47:19;;;;;;;6.40;4.50;;;13.20;99.90;;;;;;1974334;72;21054;-75
2021/09/29 02:49:45;;;;;;;9.13;4.62;;;13.20;99.90;;;;;;1962687;72;21074;-74
2021/09/29 02:52:12;;;;;;;6.50;4.97;;;13.10;99.90;;;;;;1951075;72;21066;-75
2021/09/29 02:54:38;;;;;;;7.75;5.40;;;13.00;99.90;;;;;;1948781;72;21109;-75
2021/09/29 02:57:04;;;;;;;6.28;5.33;;;13.10;99.90;;;;;;1957293;71;21133;-75
2021/09/29 02:59:30;;;;;;;6.55;4.58;;;13.00;99.90;;;;;;1953778;72;21065;-75
2021/09/29 03:01:57;;;;;;;6.58;4.85;;;13.00;99.90;;;;;;1973135;71;21062;-74
2021/09/29 03:04:23;;;;;;;6.80;5.28;;;13.00;99.90;;;;;;1991550;70;21070;-75
2021/09/29 03:06:49;;;;;;;8.90;5.50;;;13.00;99.90;;;;;;1963431;71;21063;-75
2021/09/29 03:09:15;;;;;;;5.33;4.83;;;13.00;99.90;;;;;;1956584;72;21061;-75
2021/09/29 03:11:42;;;;;;;6.12;5.53;;;13.00;99.90;;;;;;1962470;71;21474;-74
2021/09/29 03:14:08;;;;;;;8.08;5.67;;;12.90;99.90;;;;;;1976110;71;21062;-74
2021/09/29 03:16:34;;;;;;;8.18;5.53;;;13.10;99.90;;;;;;1950610;72;21131;-75
2021/09/29 03:19:00;;;;;;;9.85;6.17;;;13.00;99.90;;;;;;1955291;72;21065;-75
2021/09/29 03:21:27;;;;;;;13.30;5.78;;;13.00;99.90;;;;;;1953890;72;21034;-74
2021/09/29 03:23:53;;;;;;;10.48;5.90;;;13.10;99.90;;;;;;1956851;72;21147;-75
2021/09/29 03:26:19;;;;;;;5.55;5.00;;;13.10;99.90;;;;;;1947256;72;21529;-75
2021/09/29 03:28:45;;;;;;;6.78;5.12;;;13.20;99.90;;;;;;1970607;70;21551;-75
2021/09/29 03:31:11;;;;;;;5.65;5.15;;;13.30;99.90;;;;;;1987431;71;21431;-75
2021/09/29 03:33:37;;;;;;;10.95;5.55;;;13.20;99.90;;;;;;1961507;72;21482;-75
2021/09/29 03:36:03;;;;;;;9.40;5.45;;;13.30;99.90;;;;;;1965468;72;21583;-75
2021/09/29 03:38:29;;;;;;;7.33;5.50;;;13.30;99.90;;;;;;1970235;71;21607;-75
2021/09/29 03:40:56;;;;;;;9.15;5.28;;;13.30;99.90;;;;;;1959029;72;21253;-75
2021/09/29 03:43:22;;;;;;;6.28;4.58;;;13.40;99.90;;;;;;1969166;71;21112;-75
2021/09/29 03:45:48;;;;;;;8.03;5.05;;;13.30;99.90;;;;;;1964673;71;21061;-75
2021/09/29 03:48:14;;;;;;;8.65;4.90;;;13.30;99.90;;;;;;1969381;72;21056;-75
2021/09/29 03:50:40;;;;;;;5.85;4.70;;;13.30;99.90;;;;;;1962195;72;21063;-75
2021/09/29 03:53:06;;;;;;;8.95;4.95;;;13.30;99.90;;;;;;1951653;72;21058;-75
2021/09/29 03:55:32;;;;;;;9.48;5.65;;;13.20;99.90;;;;;;1954794;72;21141;-75
2021/09/29 03:57:58;;;;;;;10.75;5.33;;;13.10;99.90;;;;;;1953804;72;21170;-75
2021/09/29 04:00:25;;;;;;;10.08;5.37;;;13.10;99.90;;;;;;1977535;70;21039;-75
2021/09/29 04:02:51;;;;;;;8.53;5.37;;;12.90;99.90;;;;;;1953764;72;21127;-75
2021/09/29 04:05:17;;;;;;;7.72;5.35;;;12.90;99.90;;;;;;1968537;71;21143;-75
2021/09/29 04:07:43;;;;;;;9.58;5.72;;;12.80;99.90;;;;;;1947820;72;21066;-75
2021/09/29 04:10:09;;;;;;;12.58;5.45;;;12.80;99.90;;;;;;1960853;72;21024;-74
2021/09/29 04:12:39;;;;;;;14.55;5.15;;;12.80;99.90;;;;;;1966136;71;21073;-75
2021/09/29 04:15:04;;;;;;;6.90;4.67;;;12.80;99.90;;;;;;1960049;71;21090;-75
2021/09/29 04:17:30;;;;;;;9.10;5.30;;;12.70;99.90;;;;;;1970704;72;21070;-75
2021/09/29 04:19:57;;;;;;;12.88;5.08;;;12.70;99.90;;;;;;1951864;72;21031;-75
2021/09/29 04:22:23;;;;;;;5.83;4.90;;;12.70;99.90;;;;;;1961013;71;21151;-75
2021/09/29 04:24:49;;;;;;;6.60;5.12;;;12.80;99.90;;;;;;1962962;72;21135;-75
2021/09/29 04:27:16;;;;;;;6.75;4.90;;;12.80;99.90;;;;;;1967037;71;21085;-75
2021/09/29 04:29:42;;;;;;;6.90;5.03;;;12.80;99.90;;;;;;1948688;72;21141;-75
2021/09/29 04:32:10;;;;;;;10.25;5.85;;;12.80;99.90;;;;;;1965876;72;21148;-75
2021/09/29 04:34:36;;;;;;;8.20;5.83;;;12.80;99.90;;;;;;1955320;72;21060;-75
2021/09/29 04:37:02;;;;;;;12.88;6.60;;;12.80;99.90;;;;;;1965140;72;21065;-75
2021/09/29 04:39:28;;;;;;;12.68;5.87;;;12.80;99.90;;;;;;1953466;72;21041;-76
2021/09/29 04:41:54;;;;;;;10.28;5.55;;;12.80;99.90;;;;;;1953196;72;21064;-76
2021/09/29 04:44:20;;;;;;;7.78;5.67;;;12.90;99.90;;;;;;1952142;72;21166;-76
2021/09/29 04:46:46;;;;;;;8.10;5.60;;;12.80;99.90;;;;;;1955431;73;21038;-76
2021/09/29 04:49:12;;;;;;;7.30;5.33;;;12.80;99.90;;;;;;1953899;72;21076;-77
2021/09/29 04:51:39;;;;;;;8.20;6.05;;;12.70;99.90;;;;;;1951699;72;21137;-76
2021/09/29 04:54:05;;;;;;;9.88;5.95;;;12.70;99.90;;;;;;1963275;71;21472;-76
2021/09/29 04:56:31;;;;;;;14.07;6.22;;;12.70;99.90;;;;;;1949584;72;21136;-77
2021/09/29 04:58:57;;;;;;;7.28;5.83;;;12.70;99.90;;;;;;1949804;72;21070;-76
2021/09/29 05:01:25;;;;;;;8.28;6.10;;;12.80;99.90;;;;;;1963744;72;21061;-76
2021/09/29 05:03:51;;;;;;;10.58;5.80;;;12.70;99.90;;;;;;1949896;72;21087;-78
2021/09/29 05:06:17;;;;;;;10.03;6.60;;;12.70;99.90;;;;;;1950009;72;21064;-76
2021/09/29 05:08:44;;;;;;;7.42;5.70;;;12.70;99.90;;;;;;1951632;72;21053;-76
2021/09/29 05:11:10;;;;;;;9.28;5.85;;;12.70;99.90;;;;;;1955188;72;21083;-75
2021/09/29 05:13:36;;;;;;;11.55;6.58;;;12.60;99.90;;;;;;1976008;71;21065;-76
2021/09/29 05:16:02;;;;;;;13.60;5.78;;;12.50;99.90;;;;;;1970914;71;21069;-76
2021/09/29 05:18:28;;;;;;;9.38;4.45;;;12.50;99.90;;;;;;1951018;72;21027;-76
2021/09/29 05:20:54;;;;;;;6.85;4.95;;;12.40;99.90;;;;;;1966763;71;21184;-75
2021/09/29 05:23:20;;;;;;;14.55;5.28;;;12.40;99.90;;;;;;1965019;72;21271;-76
2021/09/29 05:25:47;;;;;;;14.28;5.70;;;12.40;99.90;;;;;;1989405;71;21135;-76
2021/09/29 05:28:13;;;;;;;12.88;5.75;;;12.40;99.90;;;;;;1974238;71;21181;-76
2021/09/29 05:30:39;;;;;;;12.18;5.47;;;12.30;99.90;;;;;;1960227;72;21058;-77
2021/09/29 05:33:05;;;;;;;8.88;5.42;;;12.30;99.90;;;;;;1975026;71;21062;-76
2021/09/29 05:35:31;;;;;;;9.15;5.45;;;12.30;99.90;;;;;;1969262;71;21138;-76
2021/09/29 05:37:57;;;;;;;11.08;4.65;;;12.40;99.90;;;;;;1960728;71;21023;-75
2021/09/29 05:40:23;;;;;;;19.67;5.03;;;12.40;99.90;;;;;;1970087;72;21115;-75
2021/09/29 05:42:49;;;;;;;6.90;4.45;;;12.30;99.90;;;;;;1978460;71;21051;-75
2021/09/29 05:45:16;;;;;;;5.97;4.72;;;12.30;99.90;;;;;;1968626;71;21062;-76
2021/09/29 05:47:42;;;;;;;7.83;4.60;;;12.30;99.90;;;;;;1986736;71;21031;-75
2021/09/29 05:50:08;;;;;;;12.28;4.65;;;12.40;99.90;;;;;;1960802;72;21145;-76
2021/09/29 05:52:34;;;;;;;7.30;4.62;;;12.20;99.90;;;;;;1979002;72;21059;-75
2021/09/29 05:55:00;;;;;;;4.97;4.28;;;12.40;99.90;;;;;;1975202;72;21175;-75
2021/09/29 05:57:26;;;;;;;10.32;4.67;;;12.30;99.90;;;;;;1957347;71;21119;-75
2021/09/29 05:59:52;;;;;;;10.60;4.80;;;12.40;99.90;;;;;;1957493;72;21058;-77
2021/09/29 06:02:18;;;;;;;11.65;5.00;;;12.30;99.90;;;;;;1967346;72;21065;-74
2021/09/29 06:04:44;;;;;;;11.28;5.00;;;12.30;99.90;;;;;;1958695;72;21027;-74
2021/09/29 06:07:12;;;;;;;12.47;4.67;;;12.30;99.90;;;;;;1968782;71;21098;-75
2021/09/29 06:09:40;;;;;;;9.20;4.70;;;12.30;99.90;;;;;;1958252;72;21065;-74
2021/09/29 06:12:06;;;;;;;7.22;4.87;;;12.40;99.90;;;;;;1972020;71;21548;-76
2021/09/29 06:14:32;;;;;;;10.80;4.85;;;12.40;99.90;;;;;;1980924;71;21431;-76
2021/09/29 06:17:01;;;;;;;6.87;4.78;;;12.40;99.90;;;;;;1981526;71;21157;-76
2021/09/29 06:19:26;;;;;;;9.38;5.28;;;12.40;99.90;;;;;;1977754;70;21109;-77
2021/09/29 06:21:52;;;;;;;19.65;4.58;;;12.50;99.90;;;;;;1978565;70;21146;-76
2021/09/29 06:24:19;;;;;;;6.75;4.60;;;12.50;99.90;;;;;;1961123;72;21104;-75
2021/09/29 06:26:45;;;;;;;7.60;4.95;;;12.50;99.90;;;;;;1956437;72;21147;-74
2021/09/29 06:29:11;;;;;;;11.90;5.17;;;12.60;99.90;;;;;;1953366;72;21257;-73
2021/09/29 06:31:37;;;;;;;7.97;4.78;;;12.60;99.90;;;;;;1961553;72;21132;-75
2021/09/29 06:34:03;;;;;;;8.50;4.72;;;12.70;99.90;;;;;;1920507;73;21128;-74
2021/09/29 06:36:30;;;;;;;7.12;4.12;;;12.90;99.90;;;;;;1953059;72;21166;-74
2021/09/29 06:38:56;;;;;;;7.90;5.03;;;12.90;99.90;;;;;;1972632;72;21047;-75
2021/09/29 06:41:22;;;;;;;7.45;4.75;;;13.00;99.90;;;;;;1973419;71;21039;-75
2021/09/29 06:43:48;;;;;;;7.40;4.53;;;13.20;99.90;;;;;;1960401;72;21070;-74
2021/09/29 06:46:14;;;;;;;9.13;4.53;;;13.30;99.90;;;;;;1966722;72;21060;-75
2021/09/29 06:48:42;;;;;;;7.33;4.12;;;13.30;99.90;;;;;;1954033;72;21076;-75
2021/09/29 06:51:08;;;;;;;6.17;3.60;;;13.30;99.90;;;;;;1972150;72;21033;-75
2021/09/29 06:53:34;;;;;;;10.03;4.37;;;13.40;99.90;;;;;;1966245;72;21046;-74
2021/09/29 06:56:05;;;;;;;8.63;4.60;;;13.40;99.90;;;;;;1978604;72;21054;-75
2021/09/29 06:58:28;;;;;;;5.08;3.58;;;13.50;99.90;;;;;;1953430;72;21077;-76
2021/09/29 07:00:54;;;;;;;9.20;4.03;;;13.50;99.90;;;;;;1955752;71;21111;-76
2021/09/29 07:03:22;;;;;;;4.90;3.60;;;13.50;99.90;;;;;;1957550;71;21093;-78
2021/09/29 07:05:48;;;;;;;12.07;4.12;;;13.60;99.90;;;;;;1979437;71;21140;-76
2021/09/29 07:08:14;;;;;;;12.03;6.03;;;13.70;99.90;;;;;;1964508;71;21148;-75
2021/09/29 07:13:26;;;;;;;14.87;6.15;;;13.90;99.90;;;;;;1829371;77;21115;-76
2021/09/29 07:15:52;;;;;;;23.70;6.95;;;14.20;99.90;;;;;;1832437;76;21184;-75
2021/09/29 07:18:18;;;;;;;6.33;4.72;;;14.40;99.90;;;;;;1826250;76;21072;-74
2021/09/29 07:20:44;;;;;;;7.67;4.45;;;14.50;99.90;;;;;;1839154;76;21091;-75
2021/09/29 07:23:10;;;;;;;4.92;3.30;;;14.60;99.90;;;;;;1833313;76;21142;-74
2021/09/29 07:25:38;;;;;;;8.08;3.37;;;14.80;99.90;;;;;;1839657;76;21112;-75
2021/09/29 07:28:04;;;;;;;4.45;3.10;;;14.90;99.90;;;;;;1845640;76;21108;-75
2021/09/29 07:30:30;;;;;;;2.25;1.70;;;14.90;99.90;;;;;;1833471;76;21178;-74
2021/09/29 07:32:58;;;;;;;9.48;2.12;;;15.10;99.90;;;;;;1829221;76;21077;-75
2021/09/29 07:35:24;;;;;;;4.50;1.87;;;15.20;99.90;;;;;;1832910;76;21635;-75
2021/09/29 07:37:52;;;;;;;7.22;1.82;;;15.30;99.90;;;;;;1836363;76;21504;-75
2021/09/29 07:40:18;;;;;;;6.28;1.87;;;15.40;99.90;;;;;;1843584;76;21508;-75
2021/09/29 07:42:44;;;;;;;3.33;1.40;;;15.50;99.90;;;;;;1839903;77;21511;-75
2021/09/29 07:45:10;;;;;;;5.92;1.52;;;15.60;99.90;;;;;;1830620;77;21464;-75
2021/09/29 07:47:36;;;;;;;6.25;1.77;;;15.70;99.90;;;;;;1827851;77;21598;-74
2021/09/29 07:50:04;;;;;;;3.33;1.52;;;15.80;99.90;;;;;;1826091;76;21585;-73
2021/09/29 07:52:30;;;;;;;8.10;1.70;;;15.90;99.90;;;;;;1837267;76;21106;-74
2021/09/29 07:54:56;;;;;;;4.97;1.75;;;15.90;99.90;;;;;;1835675;76;21068;-73
2021/09/29 07:57:22;;;;;;;3.22;1.22;;;15.80;99.90;;;;;;1835299;76;21499;-74
2021/09/29 07:59:48;;;;;;;1.57;1.10;;;15.80;99.90;;;;;;1841318;76;21219;-73
2021/09/29 08:02:14;;;;;;;9.95;1.25;;;15.90;99.90;;;;;;1824646;77;21183;-72
2021/09/29 08:04:41;;;;;;;3.58;1.30;;;16.10;99.90;;;;;;1826608;77;21100;-72
2021/09/29 08:07:08;;;;;;;3.90;1.52;;;16.40;99.90;;;;;;1852800;76;21060;-72
2021/09/29 08:09:34;;;;;;;2.12;1.10;;;16.50;99.90;;;;;;1852993;76;21583;-72
2021/09/29 08:12:00;;;;;;;11.20;1.62;;;16.50;99.90;;;;;;1854588;76;21099;-73
2021/09/29 08:14:26;;;;;;;2.08;1.25;;;16.70;99.90;;;;;;1854465;76;21155;-72
2021/09/29 08:16:52;;;;;;;1.95;0.80;;;17.00;99.90;;;;;;1850866;76;21063;-73
2021/09/29 08:19:18;;;;;;;3.90;1.05;;;17.20;99.90;;;;;;1855871;76;21227;-73
2021/09/29 08:21:46;;;;;;;2.70;0.98;;;17.40;99.90;;;;;;1852473;76;21158;-72
2021/09/29 08:24:17;;;;;;;5.80;1.42;;;17.50;99.90;;;;;;1842352;76;21166;-72
2021/09/29 08:29:37;;;;;;;3.20;1.20;;;17.90;99.90;;;;;;1882294;74;21096;-73
2021/09/29 08:34:35;;;;;;;2.52;1.12;;;17.80;99.90;;;;;;1889467;74;21079;-73
2021/09/29 08:39:45;;;;;;;11.83;0.72;;;17.90;99.90;;;;;;1843243;75;21467;-71
2021/09/29 08:44:42;;;;;;;1.42;0.70;;;18.50;99.90;;;;;;1864549;75;21181;-72
2021/09/29 08:47:07;;;;;;;3.27;0.88;;;18.70;99.90;;;;;;1889601;74;21499;-73
2021/09/29 08:57:41;;;;;;;4.58;0.70;;;18.80;99.90;;;;;;1886376;74;21059;-73
2021/09/29 09:18:33;;;;;;;1.85;0.98;;;18.40;99.90;;;;;;1856356;76;21564;-73
2021/09/29 09:21:09;;;;;;;3.17;1.17;;;18.20;99.90;;;;;;1859274;76;21587;-74
2021/09/29 09:23:30;;;;;;;7.90;0.78;;;18.20;99.90;;;;;;1860743;76;21214;-73
2021/09/29 09:25:56;;;;;;;3.72;1.07;;;18.20;99.90;;;;;;1855160;76;21681;-73
2021/09/29 09:28:22;;;;;;;2.72;0.68;;;18.30;99.90;;;;;;1855594;75;21608;-73
2021/09/29 09:30:50;;;;;;;2.08;0.62;;;18.80;99.90;;;;;;1870847;76;21486;-73
2021/09/29 09:33:16;;;;;;;2.42;1.17;;;19.30;99.90;;;;;;1861569;76;22577;-73
2021/09/29 09:35:42;;;;;;;2.10;0.82;;;19.50;99.90;;;;;;1873611;75;21200;-73
2021/09/29 09:38:08;;;;;;;3.83;1.12;;;19.70;99.90;;;;;;1858701;76;21568;-74
2021/09/29 09:40:35;;;;;;;2.15;1.02;;;19.50;99.90;;;;;;1859282;76;21501;-74
2021/09/29 09:43:01;;;;;;;1.85;0.62;;;19.50;99.90;;;;;;1864264;76;21491;-74
2021/09/29 09:45:27;;;;;;;2.65;0.78;;;19.30;99.90;;;;;;1856867;76;21501;-74
2021/09/29 09:47:53;;;;;;;2.20;0.57;;;19.50;99.90;;;;;;1867792;76;21083;-74
2021/09/29 09:50:19;;;;;;;5.25;0.80;;;20.00;99.90;;;;;;1859811;76;21208;-74
2021/09/29 09:52:45;;;;;;;4.85;0.98;;;20.20;99.90;;;;;;1866554;75;21087;-75
2021/09/29 09:55:12;;;;;;;6.53;0.80;;;20.60;99.90;;;;;;1863301;76;21164;-74
2021/09/29 09:57:39;;;;;;;12.65;1.40;;;20.00;99.90;;;;;;1863281;76;21078;-73
2021/09/29 10:00:06;;;;;;;3.12;0.80;;;19.70;99.90;;;;;;1860109;76;21077;-78
2021/09/29 10:02:32;;;;;;;2.72;0.65;;;19.70;99.90;;;;;;1868512;75;21172;-75
2021/09/29 10:04:58;;;;;;;3.12;0.80;;;20.40;99.90;;;;;;1870151;76;21059;-75
2021/09/29 10:07:25;;;;;;;4.55;0.72;;;20.40;99.90;;;;;;1853228;76;21081;-75
2021/09/29 10:10:02;;;;;;;1.90;0.82;;;20.20;99.90;;;;;;1858385;74;21091;-76
2021/09/29 10:12:33;;;;;;;7.00;1.25;;;19.90;99.90;;;;;;1854963;76;21183;-71
2021/09/29 10:28:09;;;;;;;2.95;0.78;;;20.60;99.90;;;;;;1859286;76;21573;-73
2021/09/29 10:30:51;;;;;;;1.80;0.60;;;21.00;99.90;;;;;;1853334;76;21579;-70
2021/09/29 10:33:06;;;;;;;4.05;1.02;;;20.80;99.90;;;;;;1854629;75;21081;-71
2021/09/29 10:35:47;;;;;;;6.08;0.95;;;20.80;99.90;;;;;;1857717;76;21152;-70
2021/09/29 10:40:51;;;;;;;1.60;0.70;;;20.50;99.90;;;;;;1862924;76;21455;-70
2021/09/29 10:43:05;;;;;;;1.45;0.60;;;20.40;99.90;;;;;;1859046;75;21093;-70
2021/09/29 10:45:39;;;;;;;6.72;0.98;;;19.90;99.90;;;;;;1855850;76;21340;-70
2021/09/29 11:04:34;;;;;;;0.88;0.65;;;19.50;99.90;;;;;;1852148;76;21556;-73
2021/09/29 11:07:01;;;;;;;3.27;1.00;;;19.60;99.90;;;;;;1856452;76;21088;-76
2021/09/29 11:28:23;;;;;;;1.07;0.50;;;20.00;99.90;;;;;;1852273;76;21564;-70
2021/09/29 11:30:34;;;;;;;3.80;0.70;;;20.50;99.90;;;;;;1843363;75;21467;-71
2021/09/29 11:33:24;;;;;;;1.62;0.60;;;20.70;99.90;;;;;;1849101;76;21214;-71
2021/09/29 11:35:41;;;;;;;1.87;0.68;;;20.60;99.90;;;;;;1849714;76;21079;-71
2021/09/29 12:10:29;;;;;;;5.08;0.88;;;21.60;99.90;;;;;;1863039;75;21152;-73
2021/09/29 12:12:56;;;;;;;2.00;0.50;;;21.30;99.90;;;;;;1858049;76;21563;-74
2021/09/29 12:15:22;;;;;;;0.72;0.33;;;21.80;99.90;;;;;;1851483;76;21072;-73
2021/09/29 12:17:51;;;;;;;2.10;0.57;;;22.10;99.90;;;;;;1861902;75;21098;-74
2021/09/29 12:20:19;;;;;;;3.55;0.70;;;21.70;99.90;;;;;;1861120;75;21054;-75
2021/09/29 12:22:48;;;;;;;1.77;0.55;;;21.20;99.90;;;;;;1860247;75;21467;-74
2021/09/29 12:25:16;;;;;;;2.42;0.42;;;20.60;99.90;;;;;;1853601;76;21086;-74
2021/09/29 12:30:17;;;;;;;11.12;0.82;;;21.30;99.90;;;;;;1865008;76;21348;-74
2021/09/29 12:32:53;;;;;;;2.12;0.47;;;21.30;99.90;;;;;;1861602;75;21420;-74
2021/09/29 12:37:39;;;;;;;1.77;0.70;;;21.60;99.90;;;;;;1859152;76;21066;-74
2021/09/29 12:40:05;;;;;;;0.93;0.50;;;21.80;99.90;;;;;;1860612;75;21081;-74
2021/09/29 12:42:32;;;;;;;2.30;0.70;;;22.20;99.90;;;;;;1854381;76;21089;-73
2021/09/29 12:44:58;;;;;;;1.47;0.50;;;23.00;99.90;;;;;;1861429;76;21144;-73
2021/09/29 12:47:37;;;;;;;2.35;0.65;;;23.40;99.90;;;;;;1857366;76;21059;-73
2021/09/29 12:49:52;;;;;;;4.28;0.40;;;22.30;99.90;;;;;;1852326;76;21051;-73
2021/09/29 12:52:25;;;;;;;9.13;0.85;;;21.70;99.90;;;;;;1860139;76;21512;-74
2021/09/29 12:54:48;;;;;;;1.57;0.62;;;21.20;99.90;;;;;;1851221;76;21116;-74
2021/09/29 12:57:14;;;;;;;1.65;0.72;;;20.70;99.90;;;;;;1858512;76;21218;-75
2021/09/29 12:59:40;;;;;;;3.20;0.80;;;20.70;99.90;;;;;;1862985;75;21083;-74
2021/09/29 13:02:06;;;;;;;1.25;0.60;;;21.00;99.90;;;;;;1862180;76;21060;-74
2021/09/29 13:04:32;;;;;;;7.17;0.70;;;21.20;99.90;;;;;;1864523;76;21135;-74
2021/09/29 13:06:58;;;;;;;2.47;0.68;;;21.10;99.90;;;;;;1868828;75;21173;-74
2021/09/29 13:09:25;;;;;;;0.90;0.42;;;20.70;99.90;;;;;;1853200;76;21051;-74
2021/09/29 13:11:51;;;;;;;4.60;0.78;;;20.80;99.90;;;;;;1868521;75;21081;-74
2021/09/29 13:14:18;;;;;;;2.70;0.60;;;21.00;99.90;;;;;;1859789;76;21089;-75
2021/09/29 13:16:44;;;;;;;2.33;0.88;;;21.00;99.90;;;;;;1857455;76;21650;-74
2021/09/29 13:19:14;;;;;;;4.03;0.70;;;21.00;99.90;;;;;;1852539;76;21503;-74
2021/09/29 13:21:50;;;;;;;0.80;0.55;;;21.00;99.90;;;;;;1856107;76;21078;-73
2021/09/29 13:24:20;;;;;;;1.47;0.70;;;20.80;99.90;;;;;;1857833;76;21167;-74
2021/09/29 13:27:00;;;;;;;1.85;0.78;;;20.90;99.90;;;;;;1867416;75;21281;-73
2021/09/29 13:37:24;;;;;;;2.45;0.53;;;20.40;99.90;;;;;;1865437;76;21148;-73
2021/09/29 13:39:54;;;;;;;2.25;0.68;;;20.10;99.90;;;;;;1851955;76;21153;-74
2021/09/29 13:42:18;;;;;;;3.60;0.70;;;20.00;99.90;;;;;;1848248;75;21104;-73
2021/09/29 13:44:44;;;;;;;5.10;0.70;;;19.70;99.90;;;;;;1853190;76;21054;-73
2021/09/29 13:47:10;;;;;;;2.15;0.78;;;19.70;99.90;;;;;;1867995;76;21565;-73
2021/09/29 13:49:36;;;;;;;3.33;0.90;;;19.40;99.90;;;;;;1854085;76;21515;-74
2021/09/29 13:52:04;;;;;;;3.67;1.00;;;19.30;99.90;;;;;;1860034;75;21419;-73
2021/09/29 13:54:30;;;;;;;2.33;0.78;;;19.00;99.90;;;;;;1861049;76;21211;-74
2021/09/29 13:57:10;;;;;;;1.95;0.93;;;18.60;99.90;;;;;;1862583;76;21086;-73
2021/09/29 14:29:36;;;;;;;3.50;0.70;;;17.50;99.90;;;;;;1862969;76;21075;-74
2021/09/29 14:34:28;;;;;;;1.07;0.40;;;17.30;99.90;;;;;;1865131;75;21090;-72
2021/09/29 14:36:54;;;;;;;2.58;1.80;;;17.20;99.90;;;;;;1858519;76;21054;-71
2021/09/29 14:39:22;;;;;;;2.40;1.32;;;17.10;99.90;;;;;;1861450;76;21217;-71
2021/09/29 14:41:48;;;;;;;13.55;1.47;;;17.10;99.90;;;;;;1860846;76;21101;-71
2021/09/29 14:44:14;;;;;;;2.87;1.15;;;17.00;99.90;;;;;;1853840;76;21502;-74
2021/09/29 14:46:40;;;;;;;2.40;0.55;;;16.90;99.90;;;;;;1860351;76;21077;-75
2021/09/29 14:49:06;;;;;;;2.10;0.40;;;16.60;99.90;;;;;;1862820;76;21166;-75
2021/09/29 14:51:34;;;;;;;1.65;0.40;;;16.00;99.90;;;;;;1851123;76;21081;-77
2021/09/29 14:54:01;;;;;;;5.00;0.28;;;15.60;99.90;;;;;;1868535;76;21481;-76
2021/09/29 14:56:27;;;;;;;0.95;0.40;;;15.50;99.90;;;;;;1857767;75;21086;-76
2021/09/29 14:58:53;;;;;;;1.00;0.40;;;15.50;99.90;;;;;;1860374;76;21514;-76
2021/09/29 15:01:23;;;;;;;0.30;0.30;;;15.50;99.90;;;;;;1852098;76;21510;-76
2021/09/29 15:03:48;;;;;;;0.37;0.37;;;15.40;99.90;;;;;;1864977;76;21117;-76
2021/09/29 15:06:15;;;;;;;0.65;0.60;;;15.20;99.90;;;;;;1857330;76;21198;-76
2021/09/29 15:08:41;;;;;;;0.85;0.40;;;15.30;99.90;;;;;;1865508;75;21086;-79
2021/09/29 15:11:08;;;;;;;1.15;0.60;;;15.20;99.90;;;;;;1850934;75;21250;-77
2021/09/29 15:13:42;;;;;;;0.40;0.40;;;15.10;99.90;;;;;;1856401;76;21094;-78
2021/09/29 15:16:09;;;;;;;1.12;0.50;;;15.00;99.90;;;;;;1847323;76;21588;-78
2021/09/29 15:18:38;;;;;;;5.47;0.55;;;14.90;99.90;;;;;;1855493;76;21222;-77
2021/09/29 15:26:29;;;;;;;1.10;0.68;;;14.80;99.90;;;;;;1855595;76;21161;-76
2021/09/29 15:31:55;;;;;;;1.17;0.62;;;14.90;99.90;;;;;;1865955;76;21565;-74
2021/09/29 15:53:33;;;;;;;1.30;0.40;;;14.70;99.90;;;;;;1847623;76;21189;-76
2021/09/29 15:55:51;;;;;;;0.95;0.40;;;14.80;99.90;;;;;;1857013;76;21840;-75
2021/09/29 15:58:21;;;;;;;1.05;0.47;;;14.90;99.90;;;;;;1853002;76;21080;-76